USTRANSCOM 7518


ETAR
Ramstein Air Force Base
Ramstein, DE
EGUN
RAF Mildenhall
Mildenhall, GB

Activity Log

Date Flight Route Aircraft Duration
07/14/2019 CMB818 Not Available B763 1h 03m
05/30/2019 CMB818 TOLE2N RUDOT Y180 BITBU Y181 MAKIK UY181 DEMUL UM624 BUB UL608 COA UL179 SASKI UL608 SUMUM IDESI LAPRA B763 1h 02m

Route Details

Aircraft Information
Primary: Boeing 767-300BDSF
Backup: Boeing 757-200SF
Route Data
Distance: 322nm
Sched. Duration: 1h 10m
Avg. Duration: 1h 02m (-8m)
Times Flown: 2
Recm'd Route: Not Available
Planned Altitude: 36,000ft
Origin Wx: ETAR 290956Z AUTO 06012G18KT 9999 FEW060 20/04 A3030 RMK AO2 SLP264 T01950044 FZRANO $
Dest. Wx: EGUN 290956Z AUTO 11007KT 9999 CLR 19/03 A3040 RMK AO2 SLP297 T01940027 $
Notes: USTRANSCOM CONTRACT FLIGHT

Financial History
Total Freight: 188,507lbs
Average Load: 94,254lbs/flt
Fuel Used: 23,454lbs
Avg. Fuel Used: 11,727lbs/flt
Fuel Expense: $18,763
Avg. Fuel Expense: $9,382
Avg. Fuel Cost: $0.80/lbs
Total Gross Income: $454,302
Pilot Pay: $378
Total Expenses: $49,169
Total Revenue: $385,882
Average Revenue: $227,150.94